createdAt,value
2023-04-24T00:03:31.000Z,0.00
2023-04-24T00:08:26.000Z,0.00
2023-04-24T00:13:20.000Z,0.00
2023-04-24T00:18:15.000Z,0.00
2023-04-24T00:23:09.000Z,0.00
2023-04-24T00:28:03.000Z,0.00
2023-04-24T00:32:57.000Z,0.00
2023-04-24T00:37:51.000Z,0.00
2023-04-24T00:42:45.000Z,0.00
2023-04-24T00:47:40.000Z,0.00
2023-04-24T00:52:34.000Z,0.00
2023-04-24T00:57:27.000Z,0.00
2023-04-24T01:02:21.000Z,0.00
2023-04-24T01:07:16.000Z,0.00
2023-04-24T01:12:10.000Z,0.00
2023-04-24T01:17:04.000Z,0.00
2023-04-24T01:21:59.000Z,0.00
2023-04-24T01:26:53.000Z,0.00
2023-04-24T01:31:49.000Z,0.00
2023-04-24T01:36:42.000Z,0.00
2023-04-24T01:41:38.000Z,0.00
2023-04-24T01:46:30.000Z,0.00
2023-04-24T01:51:24.000Z,0.00
2023-04-24T01:56:16.000Z,0.00
2023-04-24T02:01:10.000Z,0.00
2023-04-24T02:06:05.000Z,0.00
2023-04-24T02:10:59.000Z,0.00
2023-04-24T02:15:54.000Z,0.00
2023-04-24T02:20:48.000Z,0.00
2023-04-24T02:25:42.000Z,0.00
2023-04-24T02:30:36.000Z,0.00
2023-04-24T02:35:30.000Z,0.00
2023-04-24T02:40:24.000Z,0.00
2023-04-24T02:45:18.000Z,0.00
2023-04-24T02:50:12.000Z,0.00
2023-04-24T02:55:06.000Z,0.00
2023-04-24T03:00:00.000Z,0.00
2023-04-24T03:04:54.000Z,0.00
2023-04-24T03:09:49.000Z,0.00
2023-04-24T03:14:43.000Z,0.00
2023-04-24T03:19:37.000Z,0.00
2023-04-24T03:24:31.000Z,0.00
2023-04-24T03:29:25.000Z,0.00
2023-04-24T03:34:18.000Z,0.00
2023-04-24T03:39:13.000Z,0.00
2023-04-24T03:44:07.000Z,0.00
2023-04-24T03:49:01.000Z,0.00
2023-04-24T03:53:54.000Z,0.00
2023-04-24T03:58:49.000Z,0.00
2023-04-24T04:03:42.000Z,3.33
2023-04-24T04:08:36.000Z,6.67
2023-04-24T04:13:30.000Z,11.67
2023-04-24T04:18:24.000Z,20.00
2023-04-24T04:23:19.000Z,34.17
2023-04-24T04:28:13.000Z,51.67
2023-04-24T04:33:07.000Z,79.17
2023-04-24T04:38:02.000Z,105.00
2023-04-24T04:42:56.000Z,133.33
2023-04-24T04:47:50.000Z,156.67
2023-04-24T04:52:44.000Z,172.50
2023-04-24T04:57:39.000Z,217.50
2023-04-24T05:02:33.000Z,250.83
2023-04-24T05:07:27.000Z,290.83
2023-04-24T05:12:20.000Z,320.00
2023-04-24T05:17:14.000Z,367.50
2023-04-24T05:22:08.000Z,326.67
2023-04-24T05:27:00.000Z,389.17
2023-04-24T05:31:55.000Z,351.67
2023-04-24T05:36:49.000Z,302.50
2023-04-24T05:41:43.000Z,175.83
2023-04-24T05:46:37.000Z,297.50
2023-04-24T05:51:31.000Z,412.50
2023-04-24T05:56:25.000Z,436.67
2023-04-24T06:01:20.000Z,510.00
2023-04-24T06:06:15.000Z,621.67
2023-04-24T06:11:09.000Z,692.50
2023-04-24T06:16:03.000Z,643.33
2023-04-24T06:20:57.000Z,702.50
2023-04-24T06:25:52.000Z,985.00
2023-04-24T06:30:47.000Z,1262.50
2023-04-24T06:35:40.000Z,1352.50
2023-04-24T06:40:34.000Z,1105.83
2023-04-24T06:45:28.000Z,763.33
2023-04-24T06:50:22.000Z,525.00
2023-04-24T06:55:16.000Z,426.67
2023-04-24T07:00:10.000Z,451.67
2023-04-24T07:05:04.000Z,474.17
2023-04-24T07:09:58.000Z,340.00
2023-04-24T07:14:53.000Z,295.83
2023-04-24T07:19:47.000Z,295.83
2023-04-24T07:24:40.000Z,306.67
2023-04-24T07:29:31.000Z,239.17
2023-04-24T07:34:25.000Z,303.33
2023-04-24T07:39:19.000Z,308.33
2023-04-24T07:44:13.000Z,458.33
2023-04-24T07:49:08.000Z,607.50
2023-04-24T07:54:02.000Z,699.17
2023-04-24T07:58:56.000Z,505.00
2023-04-24T08:03:50.000Z,446.67
2023-04-24T08:08:45.000Z,437.50
2023-04-24T08:13:39.000Z,441.67
2023-04-24T08:18:31.000Z,506.67
2023-04-24T08:23:25.000Z,494.17
2023-04-24T08:28:20.000Z,430.83
2023-04-24T08:33:14.000Z,451.67
2023-04-24T08:38:09.000Z,544.17
2023-04-24T08:43:03.000Z,514.17
2023-04-24T08:47:57.000Z,491.67
2023-04-24T08:52:51.000Z,566.67
2023-04-24T08:57:46.000Z,645.83
2023-04-24T09:02:40.000Z,620.83
2023-04-24T09:07:34.000Z,490.83
2023-04-24T09:12:27.000Z,743.33
2023-04-24T09:17:21.000Z,874.17
2023-04-24T09:22:16.000Z,870.83
2023-04-24T09:27:10.000Z,442.50
2023-04-24T09:32:05.000Z,410.83
2023-04-24T09:36:59.000Z,282.50
2023-04-24T09:41:54.000Z,383.33
2023-04-24T09:46:47.000Z,628.33
2023-04-24T09:51:41.000Z,595.83
2023-04-24T09:56:33.000Z,1313.33
2023-04-24T10:01:27.000Z,1155.00
2023-04-24T10:06:19.000Z,1075.83
2023-04-24T10:11:14.000Z,1727.50
2023-04-24T10:16:08.000Z,1450.83
2023-04-24T10:21:03.000Z,1726.67
2023-04-24T10:25:58.000Z,1817.50
2023-04-24T10:30:52.000Z,1364.17
2023-04-24T10:35:55.000Z,1101.67
2023-04-24T10:40:41.000Z,875.00
2023-04-24T10:45:34.000Z,700.00
2023-04-24T10:50:28.000Z,683.33
2023-04-24T10:55:22.000Z,816.67
2023-04-24T11:00:16.000Z,627.50
2023-04-24T11:05:10.000Z,956.67
2023-04-24T11:10:06.000Z,635.83
2023-04-24T11:14:59.000Z,464.17
2023-04-24T11:19:53.000Z,391.67
2023-04-24T11:24:46.000Z,759.17
2023-04-24T11:29:40.000Z,1164.17
2023-04-24T11:34:34.000Z,1345.00
2023-04-24T11:39:29.000Z,1084.17
2023-04-24T11:44:23.000Z,722.50
2023-04-24T11:49:17.000Z,1367.50
2023-04-24T11:54:11.000Z,1329.17
2023-04-24T11:59:05.000Z,1968.33
2023-04-24T12:04:00.000Z,2010.83
2023-04-24T12:08:55.000Z,3724.17
2023-04-24T12:13:50.000Z,2100.83
2023-04-24T12:18:44.000Z,1140.00
2023-04-24T12:23:38.000Z,678.33
2023-04-24T12:28:32.000Z,411.67
2023-04-24T12:33:25.000Z,403.33
2023-04-24T12:38:19.000Z,364.17
2023-04-24T12:43:12.000Z,1096.67
2023-04-24T12:48:06.000Z,2926.67
2023-04-24T12:53:01.000Z,3196.67
2023-04-24T12:57:54.000Z,7210.00
2023-04-24T13:02:50.000Z,1641.67
2023-04-24T13:07:45.000Z,653.33
2023-04-24T13:12:38.000Z,506.67
2023-04-24T13:17:32.000Z,608.33
2023-04-24T13:22:26.000Z,327.50
2023-04-24T13:27:19.000Z,285.83
2023-04-24T13:32:12.000Z,277.50
2023-04-24T13:37:07.000Z,379.17
2023-04-24T13:42:01.000Z,940.83
2023-04-24T13:46:55.000Z,1529.17
2023-04-24T13:51:50.000Z,1250.83
2023-04-24T13:56:44.000Z,1493.33
2023-04-24T14:01:38.000Z,1173.33
2023-04-24T14:06:32.000Z,1238.33
2023-04-24T14:11:25.000Z,1502.50
2023-04-24T14:16:20.000Z,1355.00
2023-04-24T14:21:13.000Z,712.50
2023-04-24T14:26:07.000Z,590.83
2023-04-24T14:31:01.000Z,344.17
2023-04-24T14:40:49.000Z,274.17
2023-04-24T14:45:43.000Z,361.67
2023-04-24T14:50:37.000Z,726.67
2023-04-24T14:55:31.000Z,1303.33
2023-04-24T15:00:25.000Z,1188.33
2023-04-24T15:05:20.000Z,1402.50
2023-04-24T15:10:15.000Z,826.67
2023-04-24T15:15:09.000Z,571.67
2023-04-24T15:20:03.000Z,330.83
2023-04-24T15:24:57.000Z,298.33
2023-04-24T15:29:50.000Z,525.83
2023-04-24T15:34:44.000Z,2699.17
2023-04-24T15:39:39.000Z,1951.67
2023-04-24T15:44:34.000Z,3924.17
2023-04-24T15:49:28.000Z,3420.83
2023-04-24T15:54:22.000Z,3113.33
2023-04-24T15:59:15.000Z,9228.33
2023-04-24T16:04:10.000Z,8497.50
2023-04-24T16:09:06.000Z,8261.67
2023-04-24T16:14:00.000Z,4547.50
2023-04-24T16:18:54.000Z,7576.67
2023-04-24T16:23:49.000Z,1561.67
2023-04-24T16:28:40.000Z,789.17
2023-04-24T16:33:33.000Z,544.17
2023-04-24T16:38:26.000Z,325.00
2023-04-24T16:43:20.000Z,213.33
2023-04-24T16:48:12.000Z,138.33
2023-04-24T16:53:06.000Z,91.67
2023-04-24T16:58:01.000Z,96.67
2023-04-24T17:02:55.000Z,100.00
2023-04-24T17:07:49.000Z,112.50
2023-04-24T17:12:43.000Z,97.50
2023-04-24T17:17:37.000Z,80.00
2023-04-24T17:22:31.000Z,76.67
2023-04-24T17:27:24.000Z,43.33
2023-04-24T17:32:19.000Z,58.33
2023-04-24T17:37:13.000Z,45.83
2023-04-24T17:42:07.000Z,45.83
2023-04-24T17:47:01.000Z,27.50
2023-04-24T17:51:55.000Z,21.67
2023-04-24T17:56:48.000Z,15.83
2023-04-24T18:01:41.000Z,15.83
2023-04-24T18:06:37.000Z,14.17
2023-04-24T18:11:29.000Z,14.17
2023-04-24T18:16:23.000Z,11.67
2023-04-24T18:21:17.000Z,10.00
2023-04-24T18:26:12.000Z,10.83
2023-04-24T18:31:06.000Z,7.50
2023-04-24T18:36:00.000Z,5.00
2023-04-24T18:40:54.000Z,4.17
2023-04-24T18:45:48.000Z,2.50
2023-04-24T18:50:42.000Z,1.67
2023-04-24T18:55:35.000Z,0.83
2023-04-24T19:00:29.000Z,0.83
2023-04-24T19:05:22.000Z,0.00
2023-04-24T19:10:16.000Z,0.00
2023-04-24T19:15:11.000Z,0.00
2023-04-24T19:20:05.000Z,0.00
2023-04-24T19:24:59.000Z,0.00
2023-04-24T19:29:53.000Z,0.00
2023-04-24T19:34:47.000Z,0.00
2023-04-24T19:39:41.000Z,0.00
2023-04-24T19:44:35.000Z,0.00
2023-04-24T19:49:28.000Z,0.00
2023-04-24T19:54:22.000Z,0.00
2023-04-24T19:59:16.000Z,0.00
2023-04-24T20:04:11.000Z,0.00
2023-04-24T20:09:05.000Z,0.00
2023-04-24T20:13:59.000Z,0.00
2023-04-24T20:18:54.000Z,0.00
2023-04-24T20:23:47.000Z,0.00
2023-04-24T20:28:42.000Z,0.00
2023-04-24T20:33:36.000Z,0.00
2023-04-24T20:38:30.000Z,0.00
2023-04-24T20:43:24.000Z,0.00
2023-04-24T20:48:18.000Z,0.00
2023-04-24T20:53:12.000Z,0.00
2023-04-24T20:58:06.000Z,0.00
2023-04-24T21:03:00.000Z,0.00
2023-04-24T21:07:55.000Z,0.00
2023-04-24T21:12:49.000Z,0.00
2023-04-24T21:17:43.000Z,0.00
2023-04-24T21:22:37.000Z,0.00
2023-04-24T21:27:30.000Z,0.00
2023-04-24T21:32:25.000Z,0.00
2023-04-24T21:37:19.000Z,0.00
2023-04-24T21:42:11.000Z,0.00
2023-04-24T21:47:06.000Z,0.00
2023-04-24T21:52:00.000Z,0.00
2023-04-24T21:56:54.000Z,0.00
2023-04-24T22:01:49.000Z,0.00
2023-04-24T22:06:43.000Z,0.00
2023-04-24T22:11:37.000Z,0.00
2023-04-24T22:16:31.000Z,0.00
2023-04-24T22:21:26.000Z,0.00
2023-04-24T22:26:20.000Z,0.00
2023-04-24T22:31:14.000Z,0.00
2023-04-24T22:36:07.000Z,0.00
2023-04-24T22:41:01.000Z,0.00
2023-04-24T22:45:55.000Z,0.00
2023-04-24T22:50:50.000Z,0.00
2023-04-24T22:55:44.000Z,0.00
2023-04-24T23:00:38.000Z,0.00
2023-04-24T23:05:32.000Z,0.00
2023-04-24T23:10:25.000Z,0.00
2023-04-24T23:15:20.000Z,0.00
2023-04-24T23:20:14.000Z,0.00
2023-04-24T23:25:08.000Z,0.00
2023-04-24T23:30:02.000Z,0.00
2023-04-24T23:34:56.000Z,0.00
2023-04-24T23:39:50.000Z,0.00
2023-04-24T23:44:43.000Z,0.00
2023-04-24T23:49:37.000Z,0.00
2023-04-24T23:54:31.000Z,0.00
2023-04-24T23:59:25.000Z,0.00
